Orslev, Denmark
Current Conditions -  °F | °C
As of 4:20 PM on Wednesday 26 Nov 2014 (Local Time) from EKAV Reporting Station
Overcast Overcast  
Wind Chill: 41°   Ceiling: 1900
Heat Index: 45°   Visibility: 6mi
Dew Point: 36°   Wind: 7mph
Humidity: 71%   Direction: NA
Pressure: 30.24"   Gusts: NA
Location:  55.04°N, 11.97°E
Report Text: EKAV 261520Z AUTO VRB06KT 9999NDV OVC019/// 07/02 Q1024
Loading
Personal Weather Stations






























Interactive Weather Map New forecast layout! Learn more

10-Day Weather Forecast

Advertisements
Track Severe Weather on mobile